Detalii statie CEREAMIN SMEENI [00001CFD]

Toti senzorii

Date Temperatura solului [C]Precipitatii [mm]Voltaj baterie [mV]Leaf Wetness [Min]HC Air temperature [C]HC Relative humidity [%]Punctul de roua [C]
medieminmaxsumaultimatimpmedieminmaxmediemediemin
2018-08-12 11:00:00 24.5 24 25.1 0 7274 29.42 28.39 30.63 38.79 13.6 12.7
2018-08-12 12:00:00 25.8 25.1 26.5 0 7274 30.85 29.85 31.35 33.22 12.4 10.1
2018-08-12 13:00:00 27.1 26.6 27.7 0 7264 32.23 31.28 33.83 29.64 11.9 10.2
2018-08-12 14:00:00 28.2 27.8 28.7 0 7274 32.55 31.3 33.27 27.29 10.9 9.7
2018-08-12 15:00:00 29 28.6 29.4 0 7274 32.81 32.41 33.73 25.74 10.2 9.3
2018-08-12 16:00:00 29.5 29.4 29.8 0 7264 32.6 32.31 32.95 25.33 9.8 9.2
2018-08-12 17:00:00 29.4 29.2 29.6 0 7158 31.27 29.53 33.11 26.82 9.6 8.4
2018-08-12 18:00:00 28.8 28.5 29.2 0 7108 29.19 28.87 29.51 30.51 9.7 9.3
2018-08-12 19:00:00 28.1 27.9 28.5 0 7040 26.95 25.27 28.63 40.68 12.1 9.8
2018-08-12 20:00:00 27.5 27.2 27.8 0 6972 24.62 24.05 25.02 44.84 11.6 10.5
2018-08-12 21:00:00 27 26.7 27.3 0 6922 23.65 22.53 24.32 49.53 12.2 11.7
2018-08-12 22:00:00 26.4 26.1 26.7 0 6904 22.21 21.5 22.8 54.66 12.4 12.2
2018-08-12 23:00:00 26 25.8 26.2 0 6884 20.97 20.8 21.23 58.35 12.3 12.1
2018-08-13 00:00:00 25.5 25.3 25.8 0 6884 20.45 20.06 20.7 59.67 12.2 12.1
2018-08-13 01:00:00 25.1 25 25.4 0 6874 18.88 17.34 20.51 67.74 12.5 11.9
2018-08-13 02:00:00 24.7 24.5 24.9 0 6864 18 17.2 18.91 74.67 13.2 13.1
2018-08-13 03:00:00 24.4 24.2 24.6 0 6864 16.49 15.64 17.17 89.66 14.6 13.6
2018-08-13 04:00:00 24 23.8 24.2 0 6864 15.79 15.2 16.41 97.88 15.3 15.2
2018-08-13 05:00:00 23.7 23.5 24 0 6864 14.84 14.52 15.19 100 14.7 14.5
2018-08-13 06:00:00 23.4 23.3 23.6 0 6864 15.12 14.69 16.08 100 15 14.6
2018-08-13 07:00:00 23.2 23.1 23.4 0 6914 17.31 16.19 18.82 96.05 16.5 16.1
2018-08-13 08:00:00 23.1 23 23.2 0 7138 21.38 19.34 24.17 70.4 15.5 14.8
2018-08-13 09:00:00 23.2 23 23.4 0 7284 26.08 24.47 27.44 50.68 14.8 14.4
2018-08-13 10:00:00 23.8 23.4 24.3 0 7284 28.66 27.38 29.22 41.99 14.1 13.2
2018-08-13 11:00:00 24.9 24.4 25.5 0 7274 30.52 28.95 31.61 36.69 13.7 12.7
2018-08-13 12:00:00 26.1 25.6 27.1 0 7274 31.18 30.45 31.81 34.13 13.2 12.6
2018-08-13 13:00:00 27.4 26.9 27.9 0 7274 32.12 31.42 32.97 29.08 11.6 9.8
2018-08-13 14:00:00 28.6 28.1 29.2 0 7274 33.04 32.16 34.67 27.97 11.7 10.2
2018-08-13 15:00:00 29.3 29 29.6 0 7274 32.7 31.08 34.26 26.3 10.4 9.3
2018-08-13 16:00:00 29.7 29.7 29.9 0 7274 32.49 31.97 33.19 26.3 10.3 9.4
2018-08-13 17:00:00 29.5 29.3 29.9 0 7176 31.32 29.98 32.15 27.3 10 8.9
2018-08-13 18:00:00 28.9 28.5 29.3 0 7108 29.77 29.11 30.23 28.96 9.6 8.5
2018-08-13 19:00:00 28.2 27.9 28.5 0 7040 27.61 25.44 29.06 35.48 10.6 9.2
2018-08-13 20:00:00 27.6 27.4 28 0 6972 22.52 21.02 24.88 52.16 11.9 11.6
2018-08-13 21:00:00 27 26.7 27.3 0 6932 20.87 19.47 21.82 56.16 11.5 11.3
2018-08-13 22:00:00 26.4 26.1 26.7 0 6894 21.61 21.11 22 49.62 10.4 9.9
2018-08-13 23:00:00 25.9 25.8 26.2 0 6884 21.13 20.86 21.39 48.71 9.7 9.2
2018-08-14 00:00:00 25.4 25.1 25.6 0 6884 21.23 20.52 21.61 45.2 8.6 8.4
2018-08-14 01:00:00 25 24.7 25.2 0 6874 18.11 16.79 20.2 60.45 10 9.1
2018-08-14 02:00:00 24.5 24.3 24.8 0 6864 16.48 15.92 17.08 70.52 10.9 10.7
2018-08-14 03:00:00 24.2 24 24.4 0 6864 15.76 15.17 16.25 76 11.4 10.9
2018-08-14 04:00:00 23.8 23.7 24 0 6854 14.22 13.16 15.13 94.37 13.2 13
2018-08-14 05:00:00 23.5 23.4 23.7 0 6854 13.15 12.82 13.43 100 13.1 12.8
2018-08-14 06:00:00 23.1 23 23.4 0 6854 13.64 13.14 14.53 100 13.6 13.1
2018-08-14 07:00:00 22.8 22.7 23 0 6904 15.62 14.52 16.61 97.9 15.2 14.5
2018-08-14 08:00:00 22.7 22.6 22.9 0 7138 19.54 17.35 22.71 72.73 14.1 12.9
2018-08-14 09:00:00 22.7 22.6 23.1 0 7294 25.24 23.09 27.28 46.09 12.5 11.8
2018-08-14 10:00:00 23.4 23 23.8 0 7284 28.52 27.32 29.63 34.53 10.9 8.7